Time;durP1;ratioP1;P1;durP2;ratioP2;P2;SDS_P1;SDS_P2;PMS_P1;PMS_P2;Temp;Humidity;BMP_temperature;BMP_pressure;BME280_temperature;BME280_humidity;BME280_pressure;Samples;Min_cycle;Max_cycle;Signal;HPM_P1;HPM_P2
2022/03/22 00:00:56;;;;;;;35.60;26.67;;;;;;;;;;2062604;28;20228;-56
2022/03/22 00:01:56;;;;;;;36.22;25.33;;;;;;;;;;2049044;28;20190;-54
2022/03/22 00:02:57;;;;;;;29.52;25.33;;;;;;;;;;2048290;28;20178;-54
2022/03/22 00:04:02;;;;;;;32.28;25.30;;;;;;;;;;2051668;28;20194;-54
2022/03/22 00:05:02;;;;;;;31.17;23.85;;;;;;;;;;2060619;28;20637;-55
2022/03/22 00:06:03;;;;;;;31.25;25.33;;;;;;;;;;2052410;28;20234;-55
2022/03/22 00:07:04;;;;;;;29.60;24.00;;;;;;;;;;2053489;28;20213;-55
2022/03/22 00:08:04;;;;;;;30.00;24.27;;;;;;;;;;2057465;28;20170;-54
2022/03/22 00:09:04;;;;;;;28.52;23.92;;;;;;;;;;2042817;29;20175;-54
2022/03/22 00:10:05;;;;;;;33.65;24.67;;;;;;;;;;2043869;29;20182;-51
2022/03/22 00:11:05;;;;;;;31.38;24.45;;;;;;;;;;2049027;29;20219;-55
2022/03/22 00:12:07;;;;;;;29.38;23.00;;;;;;;;;;2040903;29;20231;-54
2022/03/22 00:13:07;;;;;;;29.25;25.15;;;;;;;;;;2048917;28;20167;-53
2022/03/22 00:14:09;;;;;;;32.63;25.73;;;;;;;;;;2056890;28;20186;-53
2022/03/22 00:15:10;;;;;;;32.25;25.90;;;;;;;;;;2056412;28;20630;-54
2022/03/22 00:16:12;;;;;;;29.10;23.60;;;;;;;;;;2061562;28;20193;-54
2022/03/22 00:17:12;;;;;;;32.53;25.33;;;;;;;;;;2059639;28;20194;-56
2022/03/22 00:18:13;;;;;;;35.33;25.85;;;;;;;;;;2061677;28;20601;-57
2022/03/22 00:19:13;;;;;;;32.72;24.88;;;;;;;;;;2055408;28;20254;-55
2022/03/22 00:20:15;;;;;;;31.95;25.23;;;;;;;;;;2059129;28;20173;-57
2022/03/22 00:21:18;;;;;;;34.30;26.95;;;;;;;;;;2064589;28;20201;-55
2022/03/22 00:22:18;;;;;;;31.63;25.60;;;;;;;;;;2058682;28;20182;-54
2022/03/22 00:23:21;;;;;;;28.70;24.67;;;;;;;;;;2057388;28;20186;-51
2022/03/22 00:24:22;;;;;;;29.17;24.05;;;;;;;;;;2061432;28;20166;-55
2022/03/22 00:25:23;;;;;;;30.15;24.60;;;;;;;;;;2058107;28;20602;-54
2022/03/22 00:26:23;;;;;;;38.28;26.02;;;;;;;;;;2062920;28;20232;-52
2022/03/22 00:27:24;;;;;;;30.73;25.05;;;;;;;;;;2065279;28;20172;-57
2022/03/22 00:28:24;;;;;;;31.90;25.80;;;;;;;;;;2064330;28;20174;-52
2022/03/22 00:29:24;;;;;;;33.42;26.65;;;;;;;;;;2065370;28;20176;-53
2022/03/22 00:30:27;;;;;;;30.15;24.02;;;;;;;;;;2065086;28;20166;-54
2022/03/22 00:31:27;;;;;;;35.63;25.02;;;;;;;;;;2065275;28;20209;-57
2022/03/22 00:32:29;;;;;;;32.00;25.35;;;;;;;;;;2065007;28;20173;-52
2022/03/22 00:33:29;;;;;;;35.05;23.75;;;;;;;;;;2056661;28;20362;-55
2022/03/22 00:34:30;;;;;;;30.10;24.50;;;;;;;;;;2056194;28;20177;-52
2022/03/22 00:35:34;;;;;;;31.60;25.33;;;;;;;;;;2065112;28;20213;-56
2022/03/22 00:36:35;;;;;;;33.70;25.77;;;;;;;;;;2060491;28;20186;-52
2022/03/22 00:37:40;;;;;;;34.60;25.60;;;;;;;;;;2048551;29;20194;-54
2022/03/22 00:38:41;;;;;;;32.17;24.85;;;;;;;;;;2049292;28;20160;-54
2022/03/22 00:39:42;;;;;;;30.52;24.55;;;;;;;;;;2057129;28;20195;-54
2022/03/22 00:40:43;;;;;;;29.27;23.48;;;;;;;;;;2056988;28;20183;-54
2022/03/22 00:41:43;;;;;;;29.30;24.17;;;;;;;;;;2057317;28;20608;-53
2022/03/22 00:42:46;;;;;;;32.38;24.10;;;;;;;;;;2056847;28;20711;-54
2022/03/22 00:43:46;;;;;;;30.13;24.67;;;;;;;;;;2057187;28;20254;-55
2022/03/22 00:44:47;;;;;;;30.40;25.02;;;;;;;;;;2056580;28;20166;-52
2022/03/22 00:45:48;;;;;;;34.80;25.00;;;;;;;;;;2057194;28;20185;-52
2022/03/22 00:46:50;;;;;;;33.70;25.90;;;;;;;;;;2057022;28;20182;-56
2022/03/22 00:47:52;;;;;;;33.43;25.23;;;;;;;;;;2057021;28;20178;-55
2022/03/22 00:48:52;;;;;;;32.03;24.65;;;;;;;;;;2057316;28;20220;-56
2022/03/22 00:49:52;;;;;;;32.75;25.13;;;;;;;;;;2063610;28;20177;-56
2022/03/22 00:50:52;;;;;;;31.80;24.98;;;;;;;;;;2056341;28;20175;-53
2022/03/22 00:51:53;;;;;;;34.35;25.05;;;;;;;;;;2063577;28;20239;-52
2022/03/22 00:52:53;;;;;;;30.25;23.90;;;;;;;;;;2060285;28;20261;-54
2022/03/22 00:53:54;;;;;;;34.10;25.55;;;;;;;;;;2066620;28;20618;-57
2022/03/22 00:54:54;;;;;;;33.50;24.90;;;;;;;;;;2066123;28;20182;-55
2022/03/22 00:55:54;;;;;;;30.02;25.13;;;;;;;;;;2066401;28;20185;-53
2022/03/22 00:56:54;;;;;;;31.02;24.13;;;;;;;;;;2052979;28;20213;-56
2022/03/22 00:57:55;;;;;;;35.28;24.52;;;;;;;;;;2049350;28;20206;-56
2022/03/22 01:00:14;;;;;;;30.05;23.58;;;;;;;;;;2055848;28;20596;-56
2022/03/22 01:01:14;;;;;;;32.42;25.13;;;;;;;;;;2058065;28;20256;-55
2022/03/22 01:02:14;;;;;;;28.65;23.52;;;;;;;;;;2058725;28;20229;-54
2022/03/22 01:03:15;;;;;;;28.10;23.73;;;;;;;;;;2050186;28;20175;-54
2022/03/22 01:04:15;;;;;;;31.50;24.20;;;;;;;;;;2049846;28;20175;-55
2022/03/22 01:05:19;;;;;;;30.67;24.25;;;;;;;;;;2060373;28;20186;-55
2022/03/22 01:06:19;;;;;;;30.83;23.10;;;;;;;;;;2060762;28;20691;-55
2022/03/22 01:07:20;;;;;;;29.80;23.58;;;;;;;;;;2060053;28;20178;-54
2022/03/22 01:08:22;;;;;;;29.23;23.33;;;;;;;;;;2061452;28;20639;-52
2022/03/22 01:09:23;;;;;;;27.88;23.55;;;;;;;;;;2068658;28;20639;-54
2022/03/22 01:10:25;;;;;;;28.60;23.58;;;;;;;;;;2066683;28;20201;-53
2022/03/22 01:11:25;;;;;;;30.00;22.97;;;;;;;;;;2060629;28;20249;-52
2022/03/22 01:12:25;;;;;;;29.20;24.67;;;;;;;;;;2061633;28;20241;-54
2022/03/22 01:13:27;;;;;;;32.08;23.73;;;;;;;;;;2064200;28;20181;-55
2022/03/22 01:14:28;;;;;;;28.20;23.90;;;;;;;;;;2059480;28;20186;-57
2022/03/22 01:15:33;;;;;;;32.97;24.25;;;;;;;;;;2055876;28;20174;-55
2022/03/22 01:16:34;;;;;;;29.80;22.60;;;;;;;;;;2067974;28;20258;-54
2022/03/22 01:17:35;;;;;;;30.03;24.03;;;;;;;;;;2059172;28;20248;-55
2022/03/22 01:18:35;;;;;;;28.02;22.92;;;;;;;;;;2057283;28;20169;-56
2022/03/22 01:19:35;;;;;;;29.50;23.30;;;;;;;;;;2059740;28;20548;-55
2022/03/22 01:20:37;;;;;;;29.05;23.58;;;;;;;;;;2064985;28;20181;-52
2022/03/22 01:21:37;;;;;;;28.67;22.73;;;;;;;;;;2067683;28;20253;-53
2022/03/22 01:22:39;;;;;;;31.10;23.70;;;;;;;;;;2060452;28;20175;-53
2022/03/22 01:23:39;;;;;;;30.40;23.67;;;;;;;;;;2058539;28;20647;-55
2022/03/22 01:24:40;;;;;;;28.43;22.67;;;;;;;;;;2067523;28;20185;-55
2022/03/22 01:25:41;;;;;;;31.02;22.92;;;;;;;;;;2068021;28;20172;-54
2022/03/22 01:26:41;;;;;;;27.33;22.40;;;;;;;;;;2060027;28;20690;-54
2022/03/22 01:27:42;;;;;;;29.13;23.50;;;;;;;;;;2055890;28;20179;-54
2022/03/22 01:28:43;;;;;;;27.07;23.13;;;;;;;;;;2068182;28;20622;-54
2022/03/22 01:29:43;;;;;;;29.73;22.83;;;;;;;;;;2058714;28;20179;-54
2022/03/22 01:30:44;;;;;;;26.10;21.95;;;;;;;;;;2055578;28;20166;-56
2022/03/22 01:31:44;;;;;;;26.52;22.20;;;;;;;;;;2060850;28;20190;-54
2022/03/22 01:32:47;;;;;;;30.17;23.55;;;;;;;;;;2058722;28;20193;-56
2022/03/22 01:33:47;;;;;;;29.58;23.33;;;;;;;;;;2057113;28;20673;-54
2022/03/22 01:34:47;;;;;;;26.88;22.63;;;;;;;;;;2063171;28;20184;-53
2022/03/22 01:35:48;;;;;;;34.00;23.45;;;;;;;;;;2055022;28;20171;-52
2022/03/22 01:36:48;;;;;;;28.15;22.33;;;;;;;;;;2065932;28;20205;-51
2022/03/22 01:37:48;;;;;;;28.58;21.58;;;;;;;;;;2061439;28;20190;-55
2022/03/22 01:38:49;;;;;;;28.13;22.77;;;;;;;;;;2059604;28;20357;-55
2022/03/22 01:39:49;;;;;;;23.83;20.38;;;;;;;;;;2056931;28;20701;-51
2022/03/22 01:40:49;;;;;;;27.75;22.08;;;;;;;;;;2056323;28;20210;-56
2022/03/22 01:41:49;;;;;;;27.60;22.92;;;;;;;;;;2051373;29;20183;-57
2022/03/22 01:42:50;;;;;;;27.38;21.55;;;;;;;;;;2047056;29;20690;-56
2022/03/22 01:43:50;;;;;;;26.80;22.27;;;;;;;;;;2045042;29;20198;-53
2022/03/22 01:44:51;;;;;;;28.05;22.80;;;;;;;;;;2062014;28;20170;-56
2022/03/22 01:45:52;;;;;;;28.77;23.37;;;;;;;;;;2064912;28;20166;-52
2022/03/22 01:46:54;;;;;;;27.27;21.42;;;;;;;;;;2059565;28;20229;-57
2022/03/22 01:47:58;;;;;;;26.55;22.55;;;;;;;;;;2060288;28;20189;-54
2022/03/22 01:48:58;;;;;;;28.70;22.40;;;;;;;;;;2058072;28;20182;-54
2022/03/22 01:49:58;;;;;;;25.85;22.20;;;;;;;;;;2061266;28;20202;-53
2022/03/22 01:51:00;;;;;;;30.15;22.25;;;;;;;;;;2064320;28;20332;-55
2022/03/22 01:52:01;;;;;;;27.57;22.27;;;;;;;;;;2062010;28;20202;-52
2022/03/22 01:53:02;;;;;;;28.57;21.40;;;;;;;;;;2066325;28;20177;-54
2022/03/22 01:54:03;;;;;;;26.33;21.57;;;;;;;;;;2061773;28;20204;-55
2022/03/22 01:55:06;;;;;;;28.10;22.25;;;;;;;;;;2061570;28;20192;-57
2022/03/22 01:56:06;;;;;;;24.93;21.20;;;;;;;;;;2062589;28;20193;-55
2022/03/22 01:57:10;;;;;;;28.63;22.50;;;;;;;;;;2066897;28;20169;-56
2022/03/22 01:58:10;;;;;;;27.30;21.97;;;;;;;;;;2065078;28;20205;-55
2022/03/22 01:59:10;;;;;;;25.80;22.15;;;;;;;;;;2066607;28;20189;-54
2022/03/22 02:00:12;;;;;;;30.95;22.73;;;;;;;;;;2060999;28;20174;-55
2022/03/22 02:06:33;;;;;;;25.17;21.17;;;;;;;;;;2065540;28;20276;-57
2022/03/22 02:07:34;;;;;;;29.00;22.67;;;;;;;;;;2068559;28;20174;-57
2022/03/22 02:08:34;;;;;;;29.17;23.90;;;;;;;;;;2060107;28;20242;-59
2022/03/22 02:09:34;;;;;;;28.27;22.73;;;;;;;;;;2058969;28;20796;-55
2022/03/22 02:10:35;;;;;;;29.50;23.33;;;;;;;;;;2068296;28;20169;-58
2022/03/22 02:11:35;;;;;;;27.03;22.43;;;;;;;;;;2060096;28;20209;-54
2022/03/22 02:12:35;;;;;;;26.50;22.57;;;;;;;;;;2043903;29;20179;-54
2022/03/22 02:13:35;;;;;;;31.67;23.00;;;;;;;;;;2051941;28;20683;-53
2022/03/22 02:14:36;;;;;;;29.13;23.07;;;;;;;;;;2060413;28;20205;-55
2022/03/22 02:15:36;;;;;;;28.43;23.50;;;;;;;;;;2060561;28;20186;-53
2022/03/22 02:16:36;;;;;;;29.07;23.47;;;;;;;;;;2058406;28;20198;-53
2022/03/22 02:17:37;;;;;;;30.00;23.33;;;;;;;;;;2057924;28;20178;-52
2022/03/22 02:18:37;;;;;;;28.45;22.95;;;;;;;;;;2057813;28;20173;-52
2022/03/22 02:19:41;;;;;;;30.50;23.03;;;;;;;;;;2057755;28;20552;-55
2022/03/22 02:20:41;;;;;;;27.73;22.67;;;;;;;;;;2057958;28;20183;-52
2022/03/22 02:21:42;;;;;;;30.43;23.00;;;;;;;;;;2057906;28;20260;-58
2022/03/22 02:22:48;;;;;;;31.25;23.55;;;;;;;;;;2057752;28;20170;-52
2022/03/22 02:23:50;;;;;;;29.57;22.90;;;;;;;;;;2058007;28;20309;-52
2022/03/22 02:24:50;;;;;;;25.80;22.20;;;;;;;;;;2048276;29;20562;-54
2022/03/22 02:25:50;;;;;;;30.93;23.50;;;;;;;;;;2049726;29;20185;-56
2022/03/22 02:26:51;;;;;;;31.00;23.53;;;;;;;;;;2057759;28;20194;-54
2022/03/22 02:27:54;;;;;;;27.47;23.50;;;;;;;;;;2057896;28;20485;-53
2022/03/22 02:28:54;;;;;;;32.92;24.50;;;;;;;;;;2057700;28;20178;-55
2022/03/22 02:29:56;;;;;;;34.15;24.40;;;;;;;;;;2057594;28;20202;-53
2022/03/22 02:30:56;;;;;;;30.50;24.20;;;;;;;;;;2057792;28;20182;-53
2022/03/22 02:31:57;;;;;;;27.77;22.77;;;;;;;;;;2057665;28;20182;-52
2022/03/22 02:33:01;;;;;;;28.30;23.25;;;;;;;;;;2057716;28;20532;-52
2022/03/22 02:34:03;;;;;;;30.55;23.38;;;;;;;;;;2048562;29;20554;-57
2022/03/22 02:35:04;;;;;;;30.27;22.88;;;;;;;;;;2049040;28;20222;-53
2022/03/22 02:36:05;;;;;;;30.33;21.97;;;;;;;;;;2057658;28;20178;-55
2022/03/22 02:37:06;;;;;;;30.10;23.17;;;;;;;;;;2053136;28;20218;-56
2022/03/22 02:38:07;;;;;;;27.47;22.93;;;;;;;;;;2052925;28;20187;-53
2022/03/22 02:39:07;;;;;;;26.00;22.27;;;;;;;;;;2061830;28;20558;-56
2022/03/22 02:40:07;;;;;;;27.20;22.67;;;;;;;;;;2063307;28;20181;-55
2022/03/22 02:41:14;;;;;;;29.07;23.70;;;;;;;;;;2060157;28;20198;-54
2022/03/22 02:42:15;;;;;;;27.80;22.27;;;;;;;;;;2058107;28;20159;-52
2022/03/22 02:43:16;;;;;;;29.30;23.17;;;;;;;;;;2048963;29;20195;-56
2022/03/22 02:44:16;;;;;;;28.48;22.13;;;;;;;;;;2048971;28;20182;-55
2022/03/22 02:45:17;;;;;;;30.45;22.77;;;;;;;;;;2052826;28;20189;-57
2022/03/22 02:46:18;;;;;;;27.53;22.87;;;;;;;;;;2041909;28;20747;-56
2022/03/22 02:47:19;;;;;;;29.87;23.20;;;;;;;;;;2048993;28;20296;-53
2022/03/22 02:48:19;;;;;;;27.70;22.95;;;;;;;;;;2057806;28;20707;-56
2022/03/22 02:49:19;;;;;;;30.67;22.70;;;;;;;;;;2059828;28;20256;-55
2022/03/22 02:50:21;;;;;;;28.60;22.17;;;;;;;;;;2056838;28;20347;-54
2022/03/22 02:51:21;;;;;;;29.15;22.80;;;;;;;;;;2063748;28;20178;-53
2022/03/22 02:52:21;;;;;;;28.55;23.98;;;;;;;;;;2048706;28;20193;-59
2022/03/22 02:53:22;;;;;;;25.90;21.33;;;;;;;;;;2054477;28;20186;-53
2022/03/22 02:54:22;;;;;;;28.47;22.17;;;;;;;;;;2051538;28;20183;-55
2022/03/22 02:55:22;;;;;;;25.73;21.90;;;;;;;;;;2063231;28;20187;-52
2022/03/22 02:56:23;;;;;;;25.87;22.43;;;;;;;;;;2057627;28;20281;-53
2022/03/22 02:57:23;;;;;;;26.08;22.05;;;;;;;;;;2057531;28;20208;-55
2022/03/22 02:58:23;;;;;;;27.17;23.10;;;;;;;;;;2060157;28;20242;-51
2022/03/22 02:59:24;;;;;;;28.43;23.00;;;;;;;;;;2057671;28;20196;-54
2022/03/22 03:00:24;;;;;;;28.13;22.63;;;;;;;;;;2048329;28;20184;-53
2022/03/22 03:01:24;;;;;;;32.23;23.40;;;;;;;;;;2046630;29;20349;-53
2022/03/22 03:02:24;;;;;;;31.77;22.47;;;;;;;;;;2047868;29;20171;-52
2022/03/22 03:03:25;;;;;;;29.73;23.23;;;;;;;;;;2057401;28;20269;-54
2022/03/22 03:04:25;;;;;;;29.65;23.55;;;;;;;;;;2063871;28;20701;-54
2022/03/22 03:05:25;;;;;;;30.13;22.33;;;;;;;;;;2063930;28;20177;-54
2022/03/22 03:06:28;;;;;;;30.15;23.77;;;;;;;;;;2055504;28;20260;-57
2022/03/22 03:07:28;;;;;;;26.55;22.50;;;;;;;;;;2055933;28;20724;-56
2022/03/22 03:08:28;;;;;;;28.13;22.77;;;;;;;;;;2064694;28;20189;-55
2022/03/22 03:09:29;;;;;;;26.20;22.50;;;;;;;;;;2064221;28;20213;-56
2022/03/22 03:10:29;;;;;;;31.17;22.83;;;;;;;;;;2057018;28;20180;-54
2022/03/22 03:11:29;;;;;;;28.73;22.77;;;;;;;;;;2063176;28;20228;-53
2022/03/22 03:12:29;;;;;;;29.43;23.03;;;;;;;;;;2056517;28;20213;-52
2022/03/22 03:14:38;;;;;;;30.42;23.13;;;;;;;;;;2064398;28;20239;-54
2022/03/22 03:14:50;;;;;;;29.93;22.43;;;;;;;;;;2050981;28;20598;-53
2022/03/22 03:15:50;;;;;;;27.77;23.90;;;;;;;;;;2054213;28;20249;-53
2022/03/22 03:16:52;;;;;;;27.67;23.13;;;;;;;;;;2053938;28;20213;-55
2022/03/22 03:17:52;;;;;;;28.52;22.92;;;;;;;;;;2048585;28;20596;-55
2022/03/22 03:18:52;;;;;;;27.97;22.33;;;;;;;;;;2051095;28;20155;-57
2022/03/22 03:19:53;;;;;;;27.53;23.43;;;;;;;;;;2056722;28;20197;-55
2022/03/22 03:20:54;;;;;;;29.83;23.63;;;;;;;;;;2053861;28;20726;-56
2022/03/22 03:21:54;;;;;;;29.50;23.23;;;;;;;;;;2056687;28;20280;-55
2022/03/22 03:22:55;;;;;;;31.37;24.50;;;;;;;;;;2056681;28;20190;-55
2022/03/22 03:23:55;;;;;;;27.93;23.73;;;;;;;;;;2061936;28;20277;-54
2022/03/22 03:24:56;;;;;;;28.57;23.67;;;;;;;;;;2059079;28;20221;-56
2022/03/22 03:25:56;;;;;;;25.97;21.87;;;;;;;;;;2064801;28;20201;-55
2022/03/22 03:26:56;;;;;;;27.27;23.27;;;;;;;;;;2063839;28;20197;-57
2022/03/22 03:27:57;;;;;;;27.37;22.47;;;;;;;;;;2064232;28;20643;-56
2022/03/22 03:28:57;;;;;;;30.03;23.43;;;;;;;;;;2062300;28;20216;-52
2022/03/22 03:29:58;;;;;;;30.37;23.97;;;;;;;;;;2064010;28;20737;-56
2022/03/22 03:30:58;;;;;;;29.13;22.13;;;;;;;;;;2059188;28;20221;-55
2022/03/22 03:31:58;;;;;;;27.67;23.20;;;;;;;;;;2058165;28;21872;-56
2022/03/22 03:32:59;;;;;;;27.93;22.90;;;;;;;;;;2051589;28;20449;-55
2022/03/22 03:33:59;;;;;;;28.03;23.30;;;;;;;;;;2056363;28;20174;-56
2022/03/22 03:34:59;;;;;;;27.23;22.70;;;;;;;;;;2055673;28;20553;-56
2022/03/22 03:36:00;;;;;;;26.63;22.03;;;;;;;;;;2055363;28;20566;-53
2022/03/22 03:37:00;;;;;;;30.97;23.90;;;;;;;;;;2060821;28;20181;-57
2022/03/22 03:38:00;;;;;;;28.10;23.27;;;;;;;;;;2064689;28;20177;-58
2022/03/22 03:39:03;;;;;;;27.80;22.73;;;;;;;;;;2050475;29;20171;-56
2022/03/22 03:40:04;;;;;;;27.13;22.73;;;;;;;;;;2055504;28;20208;-56
2022/03/22 03:42:23;;;;;;;26.57;21.73;;;;;;;;;;2054380;28;20193;-54
2022/03/22 03:43:23;;;;;;;30.77;23.23;;;;;;;;;;2062126;28;20174;-53
2022/03/22 03:47:07;;;;;;;28.53;21.77;;;;;;;;;;2055951;28;20166;-53
2022/03/22 03:48:07;;;;;;;27.50;22.60;;;;;;;;;;2056790;28;20287;-55
2022/03/22 03:49:08;;;;;;;26.87;22.23;;;;;;;;;;2058270;28;20754;-54
2022/03/22 03:50:08;;;;;;;30.60;23.40;;;;;;;;;;2056380;28;20197;-56
2022/03/22 03:51:08;;;;;;;28.67;23.90;;;;;;;;;;2046726;28;20222;-54
2022/03/22 03:52:09;;;;;;;28.50;22.40;;;;;;;;;;2051527;28;20186;-53
2022/03/22 03:53:10;;;;;;;26.57;22.73;;;;;;;;;;2060632;28;20662;-55
2022/03/22 03:54:10;;;;;;;28.30;23.40;;;;;;;;;;2055695;28;20190;-57
2022/03/22 03:55:10;;;;;;;30.23;22.80;;;;;;;;;;2061975;28;20730;-53
2022/03/22 03:56:11;;;;;;;26.70;22.07;;;;;;;;;;2062455;28;20554;-52
2022/03/22 03:57:12;;;;;;;27.13;21.63;;;;;;;;;;2051941;28;20178;-55
2022/03/22 03:58:12;;;;;;;26.43;22.70;;;;;;;;;;2052832;28;20666;-54
2022/03/22 03:59:14;;;;;;;27.67;22.93;;;;;;;;;;2060298;28;20178;-52
2022/03/22 04:00:15;;;;;;;29.67;22.50;;;;;;;;;;2060124;28;20255;-53
2022/03/22 04:01:15;;;;;;;31.13;23.33;;;;;;;;;;2057322;28;20166;-58
2022/03/22 04:02:16;;;;;;;26.93;22.33;;;;;;;;;;2060212;28;20212;-56
2022/03/22 04:03:17;;;;;;;30.57;22.97;;;;;;;;;;2061270;28;20650;-53
2022/03/22 04:04:17;;;;;;;29.10;21.57;;;;;;;;;;2060308;28;20178;-59
2022/03/22 04:05:17;;;;;;;28.60;23.73;;;;;;;;;;2056954;28;20186;-52
2022/03/22 04:06:17;;;;;;;29.20;21.50;;;;;;;;;;2048546;28;20210;-53
2022/03/22 04:07:19;;;;;;;28.47;21.57;;;;;;;;;;2047905;28;20214;-52
2022/03/22 04:08:19;;;;;;;27.43;22.27;;;;;;;;;;2052788;28;20277;-53
2022/03/22 04:09:19;;;;;;;28.80;22.87;;;;;;;;;;2051766;28;20581;-54
2022/03/22 04:10:20;;;;;;;29.23;23.40;;;;;;;;;;2054302;28;20603;-54
2022/03/22 04:11:20;;;;;;;26.90;22.07;;;;;;;;;;2056403;28;20197;-52
2022/03/22 04:12:22;;;;;;;27.50;22.70;;;;;;;;;;2055631;28;20650;-56
2022/03/22 04:13:22;;;;;;;26.50;22.70;;;;;;;;;;2060152;28;20269;-54
2022/03/22 04:14:23;;;;;;;30.47;22.73;;;;;;;;;;2063552;28;20177;-55
2022/03/22 04:15:25;;;;;;;29.53;22.37;;;;;;;;;;2054597;28;20203;-54
2022/03/22 04:16:26;;;;;;;28.47;22.30;;;;;;;;;;2057520;28;20190;-55
2022/03/22 04:17:26;;;;;;;28.93;22.90;;;;;;;;;;2055875;28;20210;-56
2022/03/22 04:18:26;;;;;;;27.90;22.30;;;;;;;;;;2059851;28;20170;-56
2022/03/22 04:19:28;;;;;;;34.73;24.47;;;;;;;;;;2060343;28;20182;-55
2022/03/22 04:20:30;;;;;;;25.13;22.27;;;;;;;;;;2063439;28;20178;-56
2022/03/22 04:21:31;;;;;;;29.20;22.30;;;;;;;;;;2051146;28;20187;-56
2022/03/22 04:22:31;;;;;;;25.87;22.03;;;;;;;;;;2056356;28;20202;-56
2022/03/22 04:23:32;;;;;;;28.07;21.77;;;;;;;;;;2060051;28;20186;-53
2022/03/22 04:24:32;;;;;;;30.33;23.60;;;;;;;;;;2065357;28;20186;-55
2022/03/22 04:25:32;;;;;;;29.50;22.77;;;;;;;;;;2057406;28;20268;-54
2022/03/22 04:26:37;;;;;;;28.30;23.30;;;;;;;;;;2052467;29;20249;-52
2022/03/22 04:32:54;;;;;;;27.80;23.13;;;;;;;;;;2060931;28;20186;-55
2022/03/22 04:33:54;;;;;;;29.70;23.17;;;;;;;;;;2063441;28;20201;-54
2022/03/22 04:34:54;;;;;;;27.60;22.90;;;;;;;;;;2067115;28;20229;-55
2022/03/22 04:35:54;;;;;;;27.67;22.07;;;;;;;;;;2057667;28;20189;-56
2022/03/22 04:36:55;;;;;;;26.67;22.93;;;;;;;;;;2051961;28;20270;-56
2022/03/22 04:37:55;;;;;;;28.07;23.20;;;;;;;;;;2058916;28;20186;-56
2022/03/22 04:38:56;;;;;;;27.33;23.03;;;;;;;;;;2060040;28;20643;-54
2022/03/22 04:39:56;;;;;;;30.67;22.80;;;;;;;;;;2058643;28;20186;-57
2022/03/22 04:40:57;;;;;;;25.90;22.80;;;;;;;;;;2061518;28;20185;-55
2022/03/22 04:41:59;;;;;;;29.17;23.63;;;;;;;;;;2065974;28;20178;-56
2022/03/22 04:42:59;;;;;;;28.67;22.70;;;;;;;;;;2061692;28;20201;-53
2022/03/22 04:43:59;;;;;;;29.43;22.37;;;;;;;;;;2065322;28;20820;-53
2022/03/22 04:45:00;;;;;;;30.37;24.07;;;;;;;;;;2059843;28;20201;-54
2022/03/22 04:46:01;;;;;;;25.17;21.67;;;;;;;;;;2059353;28;20174;-56
2022/03/22 04:47:02;;;;;;;34.53;24.70;;;;;;;;;;2059977;28;20194;-55
2022/03/22 04:48:02;;;;;;;29.83;23.30;;;;;;;;;;2059488;28;20192;-56
2022/03/22 04:49:03;;;;;;;31.43;23.17;;;;;;;;;;2057984;28;20187;-56
2022/03/22 04:50:04;;;;;;;30.30;23.33;;;;;;;;;;2052434;28;20182;-56
2022/03/22 04:57:39;;;;;;;30.27;23.53;;;;;;;;;;2053084;28;20206;-66
2022/03/22 04:58:39;;;;;;;30.57;22.07;;;;;;;;;;2048032;29;20198;-63
2022/03/22 04:59:41;;;;;;;34.13;24.20;;;;;;;;;;2049155;29;20183;-64
2022/03/22 05:00:41;;;;;;;29.37;23.27;;;;;;;;;;2056477;28;20185;-64
2022/03/22 05:01:45;;;;;;;26.43;22.73;;;;;;;;;;2048373;29;20193;-64
2022/03/22 05:02:45;;;;;;;27.27;23.90;;;;;;;;;;2049104;28;20814;-63
2022/03/22 05:03:45;;;;;;;29.70;22.67;;;;;;;;;;2057131;28;20181;-65
2022/03/22 05:04:46;;;;;;;32.30;22.73;;;;;;;;;;2055691;28;20269;-62
2022/03/22 05:07:05;;;;;;;30.63;22.87;;;;;;;;;;2052319;28;20233;-63
2022/03/22 05:08:05;;;;;;;27.53;23.37;;;;;;;;;;2057585;28;20269;-65
2022/03/22 05:09:06;;;;;;;30.73;24.23;;;;;;;;;;2048550;29;20187;-65
2022/03/22 05:10:07;;;;;;;31.03;23.10;;;;;;;;;;2048926;28;20183;-65
2022/03/22 05:11:07;;;;;;;28.00;22.33;;;;;;;;;;2056242;28;20675;-66
2022/03/22 05:12:13;;;;;;;30.23;23.07;;;;;;;;;;2057560;28;20273;-59
2022/03/22 05:13:14;;;;;;;29.27;23.17;;;;;;;;;;2054607;28;20178;-64
2022/03/22 05:14:15;;;;;;;31.43;23.60;;;;;;;;;;2047764;29;20186;-65
2022/03/22 05:15:16;;;;;;;30.27;23.17;;;;;;;;;;2047622;28;20178;-64
2022/03/22 05:16:16;;;;;;;29.23;23.93;;;;;;;;;;2049313;29;20206;-65
2022/03/22 05:17:21;;;;;;;28.07;22.17;;;;;;;;;;2048719;29;20206;-64
2022/03/22 05:18:21;;;;;;;28.13;23.77;;;;;;;;;;2049174;29;20167;-65
2022/03/22 05:19:22;;;;;;;30.20;23.97;;;;;;;;;;2039468;29;20188;-62
2022/03/22 05:20:23;;;;;;;28.17;22.60;;;;;;;;;;2048145;28;20179;-65
2022/03/22 05:21:24;;;;;;;27.60;22.57;;;;;;;;;;2057678;28;20178;-64
2022/03/22 05:22:24;;;;;;;29.90;22.90;;;;;;;;;;2064699;28;20185;-65
2022/03/22 05:23:24;;;;;;;33.27;23.93;;;;;;;;;;2059281;28;20178;-62
2022/03/22 05:24:25;;;;;;;27.30;24.07;;;;;;;;;;2057069;28;20702;-63
2022/03/22 05:25:31;;;;;;;28.30;23.60;;;;;;;;;;2057811;28;20604;-66
2022/03/22 05:26:31;;;;;;;30.80;22.87;;;;;;;;;;2048158;29;20175;-64
2022/03/22 05:27:31;;;;;;;31.33;24.20;;;;;;;;;;2048066;29;20661;-62
2022/03/22 05:28:33;;;;;;;29.33;23.77;;;;;;;;;;2056107;28;20530;-62
2022/03/22 05:29:33;;;;;;;25.37;22.67;;;;;;;;;;2057153;28;20261;-66
2022/03/22 05:30:33;;;;;;;30.67;23.43;;;;;;;;;;2055948;28;20177;-66
2022/03/22 05:31:34;;;;;;;31.60;24.07;;;;;;;;;;2056750;28;20206;-66
2022/03/22 05:32:35;;;;;;;29.40;23.57;;;;;;;;;;2040500;29;20584;-62
2022/03/22 05:33:36;;;;;;;28.50;23.40;;;;;;;;;;2032950;29;20629;-67
2022/03/22 05:34:37;;;;;;;32.43;22.73;;;;;;;;;;2033144;29;20187;-65
2022/03/22 05:35:37;;;;;;;29.97;23.17;;;;;;;;;;2040036;29;20196;-65
2022/03/22 05:36:37;;;;;;;29.93;23.73;;;;;;;;;;2050296;28;20187;-68
2022/03/22 05:37:37;;;;;;;33.03;25.00;;;;;;;;;;2048691;29;20218;-66
2022/03/22 05:38:38;;;;;;;30.73;24.33;;;;;;;;;;2054545;28;20179;-57
2022/03/22 05:39:38;;;;;;;29.03;23.67;;;;;;;;;;2057265;28;20694;-67
2022/03/22 05:40:39;;;;;;;33.50;23.90;;;;;;;;;;2057402;28;20174;-67
2022/03/22 05:41:39;;;;;;;30.00;23.63;;;;;;;;;;2048676;29;20175;-67
2022/03/22 05:42:40;;;;;;;31.53;24.30;;;;;;;;;;2045359;29;20184;-64
2022/03/22 05:43:41;;;;;;;30.50;24.03;;;;;;;;;;2055524;28;20185;-64
2022/03/22 05:44:43;;;;;;;27.83;23.50;;;;;;;;;;2056288;28;20193;-66
2022/03/22 05:45:48;;;;;;;30.97;24.67;;;;;;;;;;2056930;28;20175;-65
2022/03/22 05:46:49;;;;;;;33.10;22.77;;;;;;;;;;2053935;28;20629;-67
2022/03/22 05:47:50;;;;;;;30.00;23.70;;;;;;;;;;2057361;28;20178;-64
2022/03/22 05:48:50;;;;;;;30.33;22.17;;;;;;;;;;2052938;28;20277;-65
2022/03/22 05:49:50;;;;;;;31.10;23.37;;;;;;;;;;2040631;29;20179;-66
2022/03/22 05:50:51;;;;;;;29.57;23.50;;;;;;;;;;2035825;29;20184;-61
2022/03/22 05:51:51;;;;;;;30.50;23.43;;;;;;;;;;2048030;29;20178;-64
2022/03/22 05:52:51;;;;;;;30.30;24.90;;;;;;;;;;2048998;29;20210;-67
2022/03/22 05:53:52;;;;;;;31.00;23.43;;;;;;;;;;2057006;28;20272;-65
2022/03/22 05:54:52;;;;;;;29.47;23.53;;;;;;;;;;2052159;28;20171;-67
2022/03/22 05:55:53;;;;;;;28.33;22.73;;;;;;;;;;2056878;28;20280;-64
2022/03/22 05:56:53;;;;;;;28.93;23.33;;;;;;;;;;2041016;29;20222;-65
2022/03/22 05:57:53;;;;;;;31.80;24.60;;;;;;;;;;2040680;29;20172;-65
2022/03/22 05:58:53;;;;;;;29.57;24.53;;;;;;;;;;2049375;29;20184;-67
2022/03/22 05:59:54;;;;;;;32.20;24.43;;;;;;;;;;2046632;29;20185;-66
2022/03/22 06:00:55;;;;;;;30.90;24.63;;;;;;;;;;2052052;28;20655;-65
2022/03/22 06:01:55;;;;;;;30.23;23.47;;;;;;;;;;2057129;28;20178;-66
2022/03/22 06:02:55;;;;;;;32.37;24.20;;;;;;;;;;2057177;28;20179;-67
2022/03/22 06:03:57;;;;;;;30.57;24.07;;;;;;;;;;2056731;28;20639;-66
2022/03/22 06:04:57;;;;;;;30.07;22.73;;;;;;;;;;2056785;28;20178;-67
2022/03/22 06:05:57;;;;;;;30.03;24.27;;;;;;;;;;2056294;28;20186;-65
2022/03/22 06:07:00;;;;;;;30.57;22.80;;;;;;;;;;2057041;28;20198;-67
2022/03/22 06:08:01;;;;;;;30.07;23.50;;;;;;;;;;2056967;28;20183;-66
2022/03/22 06:09:01;;;;;;;29.57;24.40;;;;;;;;;;2048927;29;20174;-66
2022/03/22 06:10:02;;;;;;;28.13;23.40;;;;;;;;;;2048253;29;20191;-66
2022/03/22 06:11:02;;;;;;;27.80;23.57;;;;;;;;;;2047939;29;20269;-65
2022/03/22 06:12:06;;;;;;;29.63;24.43;;;;;;;;;;2048488;28;20183;-66
2022/03/22 06:13:06;;;;;;;27.53;22.20;;;;;;;;;;2057100;28;20203;-66
2022/03/22 06:14:07;;;;;;;31.20;24.40;;;;;;;;;;2054073;28;20197;-66
2022/03/22 06:15:17;;;;;;;27.40;22.23;;;;;;;;;;2056494;28;20233;-67
2022/03/22 06:16:18;;;;;;;32.60;23.23;;;;;;;;;;2051714;28;20186;-66
2022/03/22 06:17:18;;;;;;;30.03;23.00;;;;;;;;;;2054671;28;20205;-67
2022/03/22 06:18:18;;;;;;;29.43;22.47;;;;;;;;;;2056640;28;20190;-65